createdAt,value
2018-05-04T00:00:58.438Z,102339.98
2018-05-04T00:03:24.593Z,102335.58
2018-05-04T00:05:50.733Z,102336.91
2018-05-04T00:08:17.178Z,102338.64
2018-05-04T00:10:43.368Z,102338.23
2018-05-04T00:13:09.509Z,102336.47
2018-05-04T00:15:35.689Z,102331.67
2018-05-04T00:18:01.937Z,102336.50
2018-05-04T00:20:28.085Z,102330.40
2018-05-04T00:22:54.259Z,102326.45
2018-05-04T00:25:20.408Z,102335.66
2018-05-04T00:27:46.931Z,102334.80
2018-05-04T00:30:13.333Z,102326.04
2018-05-04T00:32:39.491Z,102331.30
2018-05-04T00:35:05.666Z,102327.38
2018-05-04T00:37:32.124Z,102328.27
2018-05-04T00:39:58.697Z,102338.33
2018-05-04T00:42:24.868Z,102337.02
2018-05-04T00:44:51.020Z,102336.59
2018-05-04T00:47:17.224Z,102344.03
2018-05-04T00:49:43.365Z,102344.92
2018-05-04T00:52:09.507Z,102351.07
2018-05-04T00:54:36.061Z,102355.03
2018-05-04T00:57:02.216Z,102351.95
2018-05-04T00:59:28.364Z,102353.70
2018-05-04T01:01:54.814Z,102360.73
2018-05-04T01:04:20.974Z,102363.35
2018-05-04T01:06:47.146Z,102368.18
2018-05-04T01:09:13.290Z,102362.48
2018-05-04T01:11:39.483Z,102360.30
2018-05-04T01:14:05.954Z,102360.73
2018-05-04T01:16:32.100Z,102365.98
2018-05-04T01:18:58.265Z,102361.61
2018-05-04T01:21:24.744Z,102369.06
2018-05-04T01:23:50.908Z,102367.31
2018-05-04T01:26:17.080Z,102366.42
2018-05-04T01:28:43.235Z,102358.98
2018-05-04T01:31:09.453Z,102371.69
2018-05-04T01:33:35.592Z,102367.77
2018-05-04T01:36:01.726Z,102375.64
2018-05-04T01:38:27.925Z,102380.90
2018-05-04T01:40:54.075Z,102381.34
2018-05-04T01:43:20.243Z,102378.73
2018-05-04T01:45:46.513Z,102382.24
2018-05-04T01:48:12.667Z,102373.05
2018-05-04T01:50:39.201Z,102373.92
2018-05-04T01:53:05.361Z,102376.54
2018-05-04T01:55:31.496Z,102381.81
2018-05-04T01:57:57.692Z,102380.51
2018-05-04T02:00:24.085Z,102390.11
2018-05-04T02:02:50.225Z,102385.31
2018-05-04T02:05:16.461Z,102391.45
2018-05-04T02:07:42.643Z,102386.19
2018-05-04T02:10:09.201Z,102383.13
2018-05-04T02:12:35.362Z,102384.45
2018-05-04T02:15:01.503Z,102386.20
2018-05-04T02:17:27.655Z,102381.39
2018-05-04T02:19:53.806Z,102379.62
2018-05-04T02:22:20.010Z,102387.06
2018-05-04T02:24:46.146Z,102384.02
2018-05-04T02:27:12.289Z,102392.34
2018-05-04T02:29:38.461Z,102391.89
2018-05-04T02:32:04.656Z,102392.33
2018-05-04T02:34:31.083Z,102392.31
2018-05-04T02:36:57.220Z,102401.53
2018-05-04T02:39:23.419Z,102391.85
2018-05-04T02:41:49.965Z,102387.91
2018-05-04T02:44:16.133Z,102383.12
2018-05-04T02:46:42.287Z,102389.25
2018-05-04T02:49:08.563Z,102395.80
2018-05-04T02:51:34.710Z,102394.06
2018-05-04T02:54:00.859Z,102398.00
2018-05-04T02:56:27.037Z,102403.25
2018-05-04T02:58:53.178Z,102394.06
2018-05-04T03:01:19.383Z,102392.30
2018-05-04T03:03:45.517Z,102394.49
2018-05-04T03:06:11.805Z,102398.88
2018-05-04T03:08:37.957Z,102397.98
2018-05-04T03:11:04.110Z,102397.11
2018-05-04T03:13:30.521Z,102398.87
2018-05-04T03:15:56.669Z,102403.23
2018-05-04T03:18:22.872Z,102393.63
2018-05-04T03:20:49.303Z,102397.55
2018-05-04T03:23:15.437Z,102403.68
2018-05-04T03:25:41.865Z,102405.87
2018-05-04T03:28:07.997Z,102408.48
2018-05-04T03:30:34.163Z,102406.73
2018-05-04T03:33:00.648Z,102405.86
2018-05-04T03:35:26.804Z,102411.55
2018-05-04T03:37:53.004Z,102413.75
2018-05-04T03:40:19.443Z,102412.44
2018-05-04T03:42:45.623Z,102412.87
2018-05-04T03:45:11.769Z,102419.41
2018-05-04T03:47:38.226Z,102425.53
2018-05-04T03:50:04.361Z,102436.91
2018-05-04T03:52:30.536Z,102437.77
2018-05-04T03:54:56.667Z,102441.70
2018-05-04T03:57:35.434Z,102439.98
2018-05-04T04:00:13.702Z,102437.36
2018-05-04T04:02:52.118Z,102438.67
2018-05-04T04:05:18.267Z,102440.84
2018-05-04T04:07:44.454Z,102450.91
2018-05-04T04:10:10.716Z,102444.36
2018-05-04T04:12:36.955Z,102449.16
2018-05-04T04:15:03.136Z,102450.91
2018-05-04T04:17:29.597Z,102455.72
2018-05-04T04:19:55.826Z,102463.59
2018-05-04T04:22:21.999Z,102462.71
2018-05-04T04:24:48.414Z,102466.22
2018-05-04T04:27:16.916Z,102464.48
2018-05-04T04:29:43.082Z,102465.78
2018-05-04T04:32:09.221Z,102471.03
2018-05-04T04:34:35.410Z,102475.41
2018-05-04T04:37:01.550Z,102480.19
2018-05-04T04:39:27.719Z,102486.75
2018-05-04T04:41:53.852Z,102489.34
2018-05-04T04:44:20.014Z,102485.85
2018-05-04T04:46:46.206Z,102487.61
2018-05-04T04:49:12.361Z,102484.11
2018-05-04T04:51:38.519Z,102483.23
2018-05-04T04:54:05.015Z,102484.98
2018-05-04T04:56:31.306Z,102493.72
2018-05-04T04:58:57.963Z,102494.16
2018-05-04T05:01:24.121Z,102497.63
2018-05-04T05:03:51.035Z,102498.06
2018-05-04T05:06:17.429Z,102497.63
2018-05-04T05:08:43.573Z,102499.80
2018-05-04T05:11:10.165Z,102498.52
2018-05-04T05:13:36.314Z,102506.84
2018-05-04T05:16:02.462Z,102505.53
2018-05-04T05:18:28.917Z,102504.72
2018-05-04T05:20:55.088Z,102502.97
2018-05-04T05:23:21.254Z,102505.58
2018-05-04T05:25:47.486Z,102506.46
2018-05-04T05:28:13.714Z,102509.09
2018-05-04T05:30:39.882Z,102518.70
2018-05-04T05:33:06.280Z,102520.88
2018-05-04T05:35:32.513Z,102518.27
2018-05-04T05:37:58.654Z,102520.87
2018-05-04T05:40:24.820Z,102525.23
2018-05-04T05:42:51.293Z,102519.08
2018-05-04T05:45:17.632Z,102517.36
2018-05-04T05:47:43.858Z,102517.80
2018-05-04T05:50:10.104Z,102515.20
2018-05-04T05:52:36.297Z,102517.86
2018-05-04T05:55:02.462Z,102515.23
2018-05-04T05:57:28.638Z,102514.79
2018-05-04T05:59:54.819Z,102512.16
2018-05-04T06:02:20.965Z,102508.70
2018-05-04T06:04:47.256Z,102512.22
2018-05-04T06:07:13.678Z,102506.52
2018-05-04T06:09:39.821Z,102500.84
2018-05-04T06:12:06.039Z,102501.27
2018-05-04T06:14:32.464Z,102495.16
2018-05-04T06:16:58.757Z,102494.31
2018-05-04T06:19:24.921Z,102492.54
2018-05-04T06:21:51.221Z,102492.98
2018-05-04T06:24:17.509Z,102501.31
2018-05-04T06:26:43.657Z,102498.25
2018-05-04T06:29:10.246Z,102495.17
2018-05-04T06:31:36.449Z,102493.42
2018-05-04T06:34:02.603Z,102482.93
2018-05-04T06:36:28.869Z,102484.67
2018-05-04T06:38:55.294Z,102487.72
2018-05-04T06:41:21.695Z,102486.86
2018-05-04T06:43:48.434Z,102481.58
2018-05-04T06:46:14.709Z,102486.40
2018-05-04T06:48:40.967Z,102485.95
2018-05-04T06:51:07.073Z,102492.97
2018-05-04T06:53:33.404Z,102498.67
2018-05-04T06:55:59.567Z,102504.77
2018-05-04T06:58:25.730Z,102512.20
2018-05-04T07:00:51.948Z,102508.27
2018-05-04T07:03:18.122Z,102511.33
2018-05-04T07:05:44.283Z,102509.56
2018-05-04T07:08:10.474Z,102505.61
2018-05-04T07:10:36.621Z,102506.93
2018-05-04T07:13:02.911Z,102510.89
2018-05-04T07:15:29.396Z,102512.17
2018-05-04T07:17:55.542Z,102510.47
2018-05-04T07:20:21.748Z,102506.49
2018-05-04T07:22:48.320Z,102510.03
2018-05-04T07:25:14.524Z,102500.81
2018-05-04T07:27:40.687Z,102501.27
2018-05-04T07:30:06.953Z,102499.51
2018-05-04T07:32:33.097Z,102500.37
2018-05-04T07:34:59.254Z,102506.09
2018-05-04T07:37:25.433Z,102501.27
2018-05-04T07:39:51.600Z,102510.47
2018-05-04T07:42:17.814Z,102510.88
2018-05-04T07:44:43.989Z,102510.44
2018-05-04T07:47:10.164Z,102508.70
2018-05-04T07:49:36.465Z,102518.77
2018-05-04T07:52:02.645Z,102520.98
2018-05-04T07:54:28.876Z,102525.77
2018-05-04T07:56:55.028Z,102522.71
2018-05-04T07:59:21.478Z,102527.53
2018-05-04T08:01:47.647Z,102528.86
2018-05-04T08:04:13.819Z,102525.35
2018-05-04T08:06:40.289Z,102533.22
2018-05-04T08:09:06.481Z,102527.11
2018-05-04T08:11:32.984Z,102528.84
2018-05-04T08:13:59.145Z,102527.55
2018-05-04T08:16:25.292Z,102536.30
2018-05-04T08:18:51.600Z,102544.17
2018-05-04T08:21:17.765Z,102536.73
2018-05-04T08:23:44.196Z,102547.24
2018-05-04T08:26:10.377Z,102544.19
2018-05-04T08:28:36.545Z,102547.67
2018-05-04T08:31:02.770Z,102555.15
2018-05-04T08:33:28.985Z,102566.98
2018-05-04T08:35:55.183Z,102570.05
2018-05-04T08:38:21.391Z,102567.86
2018-05-04T08:40:47.676Z,102562.17
2018-05-04T08:43:13.828Z,102554.72
2018-05-04T08:45:39.989Z,102550.79
2018-05-04T08:48:06.152Z,102548.59
2018-05-04T08:50:32.448Z,102549.03
2018-05-04T08:52:58.613Z,102541.14
2018-05-04T08:55:25.018Z,102541.13
2018-05-04T08:57:51.214Z,102543.75
2018-05-04T09:00:17.426Z,102546.83
2018-05-04T09:02:43.583Z,102551.20
2018-05-04T09:05:09.858Z,102556.02
2018-05-04T09:07:35.954Z,102555.17
2018-05-04T09:10:02.115Z,102556.47
2018-05-04T09:12:28.343Z,102548.15
2018-05-04T09:14:54.485Z,102556.00
2018-05-04T09:17:20.666Z,102551.63
2018-05-04T09:19:46.883Z,102559.52
2018-05-04T09:22:13.066Z,102559.97
2018-05-04T09:24:39.255Z,102563.45
2018-05-04T09:27:05.662Z,102570.92
2018-05-04T09:29:31.826Z,102572.67
2018-05-04T09:31:58.330Z,102573.55
2018-05-04T09:34:24.516Z,102577.03
2018-05-04T09:36:50.673Z,102575.27
2018-05-04T09:39:16.873Z,102564.73
2018-05-04T09:41:43.040Z,102571.33
2018-05-04T09:44:09.250Z,102562.98
2018-05-04T09:46:35.432Z,102561.25
2018-05-04T09:49:01.923Z,102558.62
2018-05-04T09:51:28.104Z,102563.44
2018-05-04T09:53:54.257Z,102567.80
2018-05-04T09:56:20.458Z,102568.68
2018-05-04T09:58:46.997Z,102569.53
2018-05-04T10:01:13.140Z,102566.05
2018-05-04T10:03:39.339Z,102570.85
2018-05-04T10:06:05.546Z,102562.50
2018-05-04T10:08:31.736Z,102564.67
2018-05-04T10:10:57.912Z,102569.48
2018-05-04T10:13:24.073Z,102576.06
2018-05-04T10:15:50.282Z,102570.81
2018-05-04T10:18:16.456Z,102573.88
2018-05-04T10:20:42.628Z,102570.38
2018-05-04T10:23:09.075Z,102567.30
2018-05-04T10:25:35.264Z,102566.81
2018-05-04T10:28:01.425Z,102565.95
2018-05-04T10:30:27.589Z,102564.18
2018-05-04T10:32:53.945Z,102565.05
2018-05-04T10:35:20.123Z,102564.60
2018-05-04T10:37:46.313Z,102560.62
2018-05-04T10:40:12.577Z,102556.66
2018-05-04T10:42:38.726Z,102559.31
2018-05-04T10:45:04.899Z,102564.55
2018-05-04T10:47:31.248Z,102568.05
2018-05-04T10:49:57.444Z,102562.36
2018-05-04T10:52:23.645Z,102559.25
2018-05-04T10:54:49.849Z,102561.00
2018-05-04T10:57:16.082Z,102561.86
2018-05-04T10:59:42.290Z,102559.67
2018-05-04T11:02:08.955Z,102557.48
2018-05-04T11:04:35.117Z,102557.88
2018-05-04T11:07:01.509Z,102557.89
2018-05-04T11:09:27.746Z,102549.98
2018-05-04T11:11:53.919Z,102553.90
2018-05-04T11:14:20.124Z,102555.23
2018-05-04T11:16:46.317Z,102555.20
2018-05-04T11:19:12.824Z,102547.72
2018-05-04T11:21:39.044Z,102552.96
2018-05-04T11:24:05.485Z,102551.17
2018-05-04T11:26:31.670Z,102556.00
2018-05-04T11:28:57.812Z,102555.10
2018-05-04T11:31:23.999Z,102555.97
2018-05-04T11:33:50.193Z,102550.22
2018-05-04T11:36:16.504Z,102554.59
2018-05-04T11:38:42.762Z,102555.02
2018-05-04T11:41:08.931Z,102563.78
2018-05-04T11:43:35.145Z,102564.22
2018-05-04T11:46:01.327Z,102552.78
2018-05-04T11:48:27.482Z,102554.48
2018-05-04T11:50:53.903Z,102557.11
2018-05-04T11:53:20.062Z,102554.02
2018-05-04T11:55:46.253Z,102551.78
2018-05-04T11:58:12.407Z,102557.50
2018-05-04T12:00:38.545Z,102560.53
2018-05-04T12:03:04.708Z,102563.16
2018-05-04T12:05:30.846Z,102564.47
2018-05-04T12:07:57.050Z,102559.16
2018-05-04T12:10:23.251Z,102561.77
2018-05-04T12:12:49.950Z,102566.14
2018-05-04T12:15:16.376Z,102563.91
2018-05-04T12:17:42.544Z,102562.56
2018-05-04T12:20:08.724Z,102560.36
2018-05-04T12:22:35.113Z,102564.27
2018-05-04T12:25:01.274Z,102563.77
2018-05-04T12:27:27.725Z,102555.80
2018-05-04T12:29:53.913Z,102555.76
2018-05-04T12:32:20.177Z,102559.72
2018-05-04T12:34:46.305Z,102560.98
2018-05-04T12:37:12.555Z,102563.61
2018-05-04T12:39:38.649Z,102560.52
2018-05-04T12:42:04.822Z,102562.31
2018-05-04T12:44:31.064Z,102564.98
2018-05-04T12:46:57.222Z,102572.54
2018-05-04T12:49:23.413Z,102567.77
2018-05-04T12:51:49.590Z,102553.72
2018-05-04T12:54:15.723Z,102567.33
2018-05-04T12:56:42.028Z,102567.30
2018-05-04T12:59:08.198Z,102555.39
2018-05-04T13:01:34.354Z,102569.41
2018-05-04T13:04:00.536Z,102572.44
2018-05-04T13:06:26.774Z,102560.98
2018-05-04T13:08:52.933Z,102565.31
2018-05-04T13:11:19.069Z,102559.58
2018-05-04T13:13:45.648Z,102563.06
2018-05-04T13:16:12.217Z,102558.17
2018-05-04T13:18:38.354Z,102555.52
2018-05-04T13:21:04.489Z,102553.72
2018-05-04T13:23:30.703Z,102548.87
2018-05-04T13:25:56.823Z,102551.94
2018-05-04T13:28:22.958Z,102553.22
2018-05-04T13:30:49.150Z,102552.31
2018-05-04T13:33:15.293Z,102549.66
2018-05-04T13:35:41.705Z,102546.11
2018-05-04T13:38:07.917Z,102549.17
2018-05-04T13:40:34.464Z,102550.44
2018-05-04T13:43:00.653Z,102553.05
2018-05-04T13:45:27.042Z,102549.95
2018-05-04T13:47:53.208Z,102550.34
2018-05-04T13:50:19.336Z,102552.95
2018-05-04T13:52:45.808Z,102555.13
2018-05-04T13:55:11.964Z,102552.88
2018-05-04T13:57:38.121Z,102542.36
2018-05-04T14:00:04.257Z,102551.52
2018-05-04T14:02:30.476Z,102549.70
2018-05-04T14:04:56.649Z,102543.50
2018-05-04T14:07:22.816Z,102539.52
2018-05-04T14:09:49.310Z,102546.03
2018-05-04T14:12:15.745Z,102548.60
2018-05-04T14:14:41.917Z,102552.48
2018-05-04T14:17:08.035Z,102551.02
2018-05-04T14:19:34.566Z,102550.45
2018-05-04T14:22:00.701Z,102551.66
2018-05-04T14:24:26.848Z,102547.06
2018-05-04T14:26:53.008Z,102549.92
2018-05-04T14:29:19.192Z,102543.70
2018-05-04T14:31:45.350Z,102540.51
2018-05-04T14:34:11.491Z,102543.30
2018-05-04T14:36:37.769Z,102539.09
2018-05-04T14:39:04.016Z,102544.95
2018-05-04T14:41:30.151Z,102534.98
2018-05-04T14:43:56.427Z,102535.06
2018-05-04T14:46:22.835Z,102535.51
2018-05-04T14:48:48.972Z,102537.39
2018-05-04T14:51:15.142Z,102541.25
2018-05-04T14:53:41.305Z,102538.14
2018-05-04T14:56:07.487Z,102529.00
2018-05-04T14:58:33.755Z,102528.91
2018-05-04T15:00:59.833Z,102523.47
2018-05-04T15:03:26.364Z,102524.34
2018-05-04T15:05:52.495Z,102526.72
2018-05-04T15:08:18.621Z,102530.48
2018-05-04T15:10:45.248Z,102525.27
2018-05-04T15:13:11.654Z,102524.61
2018-05-04T15:15:38.081Z,102526.68
2018-05-04T15:18:04.295Z,102529.36
2018-05-04T15:20:30.705Z,102524.38
2018-05-04T15:22:56.870Z,102523.67
2018-05-04T15:25:23.158Z,102524.30
2018-05-04T15:27:49.306Z,102522.27
2018-05-04T15:30:15.447Z,102529.41
2018-05-04T15:32:41.630Z,102526.59
2018-05-04T15:35:07.764Z,102528.05
2018-05-04T15:37:34.261Z,102528.64
2018-05-04T15:40:00.475Z,102528.21
2018-05-04T15:42:26.563Z,102528.44
2018-05-04T15:44:52.741Z,102528.77
2018-05-04T15:47:18.872Z,102521.87
2018-05-04T15:49:45.272Z,102531.27
2018-05-04T15:52:11.400Z,102532.62
2018-05-04T15:54:37.842Z,102530.27
2018-05-04T15:57:04.022Z,102529.97
2018-05-04T15:59:30.230Z,102531.61
2018-05-04T16:01:56.371Z,102532.66
2018-05-04T16:04:22.545Z,102536.97
2018-05-04T16:06:48.722Z,102537.03
2018-05-04T16:09:15.203Z,102538.95
2018-05-04T16:11:41.374Z,102548.08
2018-05-04T16:14:07.502Z,102552.37
2018-05-04T16:16:40.782Z,102553.50
2018-05-04T16:19:07.141Z,102559.23
2018-05-04T16:21:33.282Z,102547.48
2018-05-04T16:23:59.432Z,102550.91
2018-05-04T16:26:25.580Z,102556.13
2018-05-04T16:28:51.848Z,102554.73
2018-05-04T16:31:17.949Z,102560.12
2018-05-04T16:33:44.105Z,102558.15
2018-05-04T16:36:10.322Z,102564.45
2018-05-04T16:38:36.438Z,102566.33
2018-05-04T16:41:03.237Z,102563.31
2018-05-04T16:43:29.371Z,102566.82
2018-05-04T16:45:55.544Z,102566.27
2018-05-04T16:48:27.718Z,102567.14
2018-05-04T16:50:53.848Z,102564.20
2018-05-04T16:53:20.052Z,102568.91
2018-05-04T16:55:46.235Z,102563.05
2018-05-04T16:58:12.669Z,102562.61
2018-05-04T17:00:38.869Z,102558.69
2018-05-04T17:03:05.079Z,102559.02
2018-05-04T17:05:31.252Z,102562.80
2018-05-04T17:07:57.444Z,102564.00
2018-05-04T17:10:23.578Z,102567.78
2018-05-04T17:12:49.797Z,102567.59
2018-05-04T17:15:15.970Z,102569.20
2018-05-04T17:17:42.180Z,102569.08
2018-05-04T17:20:08.388Z,102571.15
2018-05-04T17:22:34.550Z,102567.94
2018-05-04T17:25:00.702Z,102572.77
2018-05-04T17:27:26.928Z,102572.69
2018-05-04T17:29:53.110Z,102576.63
2018-05-04T17:32:19.551Z,102578.40
2018-05-04T17:34:45.718Z,102573.10
2018-05-04T17:37:11.892Z,102582.37
2018-05-04T17:39:38.040Z,102580.61
2018-05-04T17:42:04.159Z,102582.42
2018-05-04T17:44:30.361Z,102585.55
2018-05-04T17:46:56.828Z,102583.37
2018-05-04T17:49:22.969Z,102580.33
2018-05-04T17:51:49.138Z,102583.95
2018-05-04T17:54:15.611Z,102581.79
2018-05-04T17:56:41.779Z,102584.97
2018-05-04T17:59:08.171Z,102584.58
2018-05-04T18:01:34.333Z,102593.02
2018-05-04T18:04:00.461Z,102591.33
2018-05-04T18:06:26.658Z,102594.49
2018-05-04T18:08:52.784Z,102587.09
2018-05-04T18:11:18.919Z,102586.76
2018-05-04T18:13:45.232Z,102580.73
2018-05-04T18:16:11.375Z,102583.07
2018-05-04T18:18:37.505Z,102586.25
2018-05-04T18:21:03.719Z,102577.11
2018-05-04T18:23:29.859Z,102582.52
2018-05-04T18:25:55.989Z,102583.11
2018-05-04T18:28:22.161Z,102590.75
2018-05-04T18:30:48.301Z,102598.31
2018-05-04T18:33:14.591Z,102592.33
2018-05-04T18:35:40.728Z,102587.23
2018-05-04T18:38:06.861Z,102592.22
2018-05-04T18:40:33.037Z,102591.48
2018-05-04T18:42:59.329Z,102592.91
2018-05-04T18:45:25.457Z,102594.33
2018-05-04T18:47:51.626Z,102593.52
2018-05-04T18:50:17.817Z,102592.28
2018-05-04T18:52:43.981Z,102598.07
2018-05-04T18:55:10.113Z,102603.39
2018-05-04T18:57:36.294Z,102605.23
2018-05-04T19:00:02.493Z,102611.00
2018-05-04T19:02:34.778Z,102622.05
2018-05-04T19:05:00.943Z,102616.89
2018-05-04T19:07:27.073Z,102622.65
2018-05-04T19:09:53.353Z,102618.77
2018-05-04T19:12:19.486Z,102626.76
2018-05-04T19:14:45.618Z,102628.58
2018-05-04T19:17:11.773Z,102627.34
2018-05-04T19:19:37.934Z,102630.91
2018-05-04T19:22:04.089Z,102645.05
2018-05-04T19:24:30.352Z,102661.84
2018-05-04T19:26:56.494Z,102663.19
2018-05-04T19:29:22.931Z,102659.70
2018-05-04T19:31:49.105Z,102666.34
2018-05-04T19:34:15.266Z,102666.81
2018-05-04T19:36:41.431Z,102655.04
2018-05-04T19:39:07.576Z,102670.84
2018-05-04T19:41:33.820Z,102673.52
2018-05-04T19:44:00.020Z,102689.80
2018-05-04T19:46:26.510Z,102688.09
2018-05-04T19:48:52.632Z,102696.03
2018-05-04T19:51:18.765Z,102696.92
2018-05-04T19:53:44.926Z,102695.20
2018-05-04T19:56:11.066Z,102695.20
2018-05-04T19:58:37.552Z,102698.73
2018-05-04T20:01:03.691Z,102700.51
2018-05-04T20:03:29.834Z,102703.61
2018-05-04T20:05:55.992Z,102700.08
2018-05-04T20:08:22.130Z,102698.36
2018-05-04T20:10:48.409Z,102697.06
2018-05-04T20:13:14.559Z,102696.62
2018-05-04T20:15:40.693Z,102698.86
2018-05-04T20:18:06.919Z,102698.89
2018-05-04T20:20:33.071Z,102703.73
2018-05-04T20:22:59.253Z,102704.64
2018-05-04T20:25:25.394Z,102709.48
2018-05-04T20:27:51.520Z,102718.71
2018-05-04T20:30:17.685Z,102719.59
2018-05-04T20:32:43.849Z,102728.37
2018-05-04T20:35:10.029Z,102728.37
2018-05-04T20:37:36.191Z,102725.29
2018-05-04T20:40:02.710Z,102729.67
2018-05-04T20:42:28.908Z,102733.66
2018-05-04T20:44:55.214Z,102732.80
2018-05-04T20:47:21.361Z,102731.04
2018-05-04T20:49:47.488Z,102732.36
2018-05-04T20:52:13.761Z,102735.45
2018-05-04T20:54:39.911Z,102734.14
2018-05-04T20:57:06.048Z,102730.63
2018-05-04T20:59:32.274Z,102733.70
2018-05-04T21:01:58.721Z,102740.73
2018-05-04T21:04:24.910Z,102741.19
2018-05-04T21:06:51.217Z,102739.89
2018-05-04T21:09:17.404Z,102734.60
2018-05-04T21:11:43.876Z,102735.52
2018-05-04T21:14:10.075Z,102739.02
2018-05-04T21:16:36.229Z,102734.63
2018-05-04T21:19:02.407Z,102737.70
2018-05-04T21:21:28.548Z,102732.88
2018-05-04T21:23:54.735Z,102732.84
2018-05-04T21:26:20.872Z,102733.74
2018-05-04T21:28:47.094Z,102739.89
2018-05-04T21:31:13.249Z,102746.95
2018-05-04T21:33:39.534Z,102749.14
2018-05-04T21:36:05.676Z,102747.80
2018-05-04T21:38:31.908Z,102750.44
2018-05-04T21:40:58.032Z,102750.47
2018-05-04T21:43:24.174Z,102751.34
2018-05-04T21:45:50.382Z,102750.91
2018-05-04T21:48:16.530Z,102757.05
2018-05-04T21:50:42.718Z,102760.57
2018-05-04T21:53:08.908Z,102762.77
2018-05-04T21:55:35.114Z,102764.97
2018-05-04T21:58:01.403Z,102769.80
2018-05-04T22:00:27.548Z,102770.69
2018-05-04T22:02:53.693Z,102768.94
2018-05-04T22:05:19.894Z,102765.42
2018-05-04T22:07:46.037Z,102760.59
2018-05-04T22:10:12.198Z,102760.62
2018-05-04T22:12:38.363Z,102758.87
2018-05-04T22:15:04.562Z,102766.33
2018-05-04T22:17:30.759Z,102760.62
2018-05-04T22:19:56.955Z,102768.98
2018-05-04T22:22:23.110Z,102764.17
2018-05-04T22:24:49.256Z,102770.31
2018-05-04T22:27:15.530Z,102765.04
2018-05-04T22:29:41.676Z,102766.38
2018-05-04T22:32:07.880Z,102762.84
2018-05-04T22:34:34.299Z,102766.80
2018-05-04T22:37:00.445Z,102775.14
2018-05-04T22:39:27.069Z,102776.48
2018-05-04T22:41:53.210Z,102772.08
2018-05-04T22:44:19.364Z,102765.05
2018-05-04T22:46:45.545Z,102772.08
2018-05-04T22:49:11.688Z,102780.00
2018-05-04T22:51:37.957Z,102777.34
2018-05-04T22:54:04.145Z,102782.19
2018-05-04T22:56:30.341Z,102783.09
2018-05-04T22:58:56.486Z,102780.45
2018-05-04T23:01:22.633Z,102778.23
2018-05-04T23:03:48.814Z,102782.22
2018-05-04T23:06:15.274Z,102779.13
2018-05-04T23:08:41.908Z,102778.70
2018-05-04T23:11:08.062Z,102776.06
2018-05-04T23:13:34.214Z,102780.01
2018-05-04T23:16:00.380Z,102781.33
2018-05-04T23:18:26.581Z,102783.09
2018-05-04T23:20:52.719Z,102783.95
2018-05-04T23:23:18.869Z,102780.88
2018-05-04T23:25:45.081Z,102778.69
2018-05-04T23:28:11.221Z,102782.20
2018-05-04T23:30:37.393Z,102785.27
2018-05-04T23:33:03.988Z,102783.08
2018-05-04T23:35:30.177Z,102780.45
2018-05-04T23:37:56.648Z,102784.41
2018-05-04T23:40:23.076Z,102782.20
2018-05-04T23:42:49.224Z,102776.95
2018-05-04T23:45:15.394Z,102781.34
2018-05-04T23:47:41.805Z,102795.38
2018-05-04T23:50:07.958Z,102796.26
2018-05-04T23:52:34.130Z,102801.95
2018-05-04T23:55:00.413Z,102800.66
2018-05-04T23:57:26.880Z,102800.20
2018-05-04T23:59:53.034Z,102803.26
